createdAt,value
2019-02-22T00:00:53.278Z,7.85
2019-02-22T00:03:21.991Z,7.85
2019-02-22T00:05:50.406Z,7.87
2019-02-22T00:08:18.824Z,7.89
2019-02-22T00:10:47.240Z,7.89
2019-02-22T00:13:18.651Z,7.90
2019-02-22T00:15:47.060Z,7.87
2019-02-22T00:18:15.500Z,7.86
2019-02-22T00:20:43.948Z,7.87
2019-02-22T00:23:12.389Z,7.90
2019-02-22T00:25:40.803Z,7.90
2019-02-22T00:28:09.234Z,7.92
2019-02-22T00:30:37.648Z,7.92
2019-02-22T00:33:06.435Z,7.92
2019-02-22T00:35:34.860Z,7.92
2019-02-22T00:38:03.265Z,7.94
2019-02-22T00:40:31.976Z,7.95
2019-02-22T00:43:00.396Z,7.96
2019-02-22T00:45:28.820Z,7.96
2019-02-22T00:47:57.647Z,7.99
2019-02-22T00:50:26.059Z,8.01
2019-02-22T00:52:54.469Z,8.01
2019-02-22T00:55:22.900Z,8.03
2019-02-22T00:57:51.329Z,8.03
2019-02-22T01:00:19.752Z,8.04
2019-02-22T01:02:48.167Z,8.05
2019-02-22T01:05:16.898Z,8.04
2019-02-22T01:07:45.582Z,8.03
2019-02-22T01:10:14.014Z,8.03
2019-02-22T01:12:42.427Z,8.05
2019-02-22T01:15:11.228Z,8.05
2019-02-22T01:17:39.638Z,8.06
2019-02-22T01:20:08.050Z,8.08
2019-02-22T01:22:36.483Z,8.08
2019-02-22T01:25:05.538Z,8.07
2019-02-22T01:27:33.948Z,8.07
2019-02-22T01:30:02.373Z,8.03
2019-02-22T01:32:31.099Z,8.09
2019-02-22T01:34:59.519Z,8.11
2019-02-22T01:37:27.938Z,8.14
2019-02-22T01:39:56.370Z,8.14
2019-02-22T01:42:25.131Z,8.14
2019-02-22T01:44:53.541Z,8.14
2019-02-22T01:47:21.979Z,8.10
2019-02-22T01:49:50.385Z,8.12
2019-02-22T01:52:18.818Z,8.13
2019-02-22T01:54:47.228Z,8.14
2019-02-22T01:57:15.942Z,8.16
2019-02-22T01:59:44.355Z,8.16
2019-02-22T02:02:12.768Z,8.17
2019-02-22T02:04:41.181Z,8.15
2019-02-22T02:07:09.602Z,8.17
2019-02-22T02:09:38.003Z,8.08
2019-02-22T02:12:06.696Z,8.11
2019-02-22T02:14:35.113Z,8.14
2019-02-22T02:17:03.528Z,8.12
2019-02-22T02:19:31.932Z,8.11
2019-02-22T02:22:00.355Z,8.10
2019-02-22T02:24:28.754Z,8.09
2019-02-22T02:26:57.181Z,8.08
2019-02-22T02:29:25.606Z,8.07
2019-02-22T02:31:54.019Z,8.05
2019-02-22T02:34:22.424Z,7.99
2019-02-22T02:36:50.837Z,7.98
2019-02-22T02:39:19.245Z,7.93
2019-02-22T02:41:47.971Z,7.91
2019-02-22T02:44:16.383Z,7.87
2019-02-22T02:46:44.795Z,7.85
2019-02-22T02:49:13.219Z,7.85
2019-02-22T02:51:42.093Z,7.86
2019-02-22T02:54:10.513Z,7.86
2019-02-22T02:56:38.912Z,7.89
2019-02-22T02:59:07.327Z,7.92
2019-02-22T03:01:35.733Z,7.92
2019-02-22T03:04:07.981Z,7.92
2019-02-22T03:06:38.058Z,7.91
2019-02-22T03:09:08.786Z,7.90
2019-02-22T03:11:37.191Z,7.89
2019-02-22T03:14:05.609Z,7.89
2019-02-22T03:16:34.032Z,7.89
2019-02-22T03:19:02.438Z,7.90
2019-02-22T03:21:30.855Z,7.89
2019-02-22T03:23:59.291Z,7.91
2019-02-22T03:26:28.009Z,7.91
2019-02-22T03:28:56.407Z,7.93
2019-02-22T03:31:25.276Z,7.94
2019-02-22T03:33:53.686Z,7.96
2019-02-22T03:36:22.350Z,7.96
2019-02-22T03:38:51.127Z,7.96
2019-02-22T03:41:31.962Z,7.96
2019-02-22T03:43:50.044Z,7.98
2019-02-22T03:46:18.455Z,7.99
2019-02-22T03:48:46.859Z,8.00
2019-02-22T03:51:15.311Z,8.00
2019-02-22T03:53:45.364Z,8.01
2019-02-22T03:56:13.790Z,8.01
2019-02-22T03:58:42.459Z,8.01
2019-02-22T04:01:10.885Z,8.02
2019-02-22T04:03:39.284Z,8.02
2019-02-22T04:06:07.714Z,8.01
2019-02-22T04:08:36.115Z,8.01
2019-02-22T04:11:04.964Z,8.00
2019-02-22T04:13:33.849Z,8.02
2019-02-22T04:16:02.269Z,8.02
2019-02-22T04:18:31.020Z,8.03
2019-02-22T04:20:59.439Z,8.03
2019-02-22T04:23:28.292Z,8.02
2019-02-22T04:25:56.843Z,7.98
2019-02-22T04:28:25.200Z,7.96
2019-02-22T04:30:53.609Z,7.95
2019-02-22T04:33:22.027Z,7.91
2019-02-22T04:35:50.702Z,7.88
2019-02-22T04:38:19.118Z,7.85
2019-02-22T04:40:47.515Z,7.81
2019-02-22T04:43:15.936Z,7.77
2019-02-22T04:45:44.328Z,7.74
2019-02-22T04:48:12.739Z,7.71
2019-02-22T04:50:41.213Z,7.68
2019-02-22T04:53:09.619Z,7.62
2019-02-22T04:55:38.024Z,7.46
2019-02-22T04:58:06.435Z,7.47
2019-02-22T05:00:35.185Z,7.41
2019-02-22T05:03:03.890Z,7.37
2019-02-22T05:05:32.286Z,7.32
2019-02-22T05:08:00.708Z,7.29
2019-02-22T05:10:29.129Z,7.26
2019-02-22T05:12:57.809Z,7.25
2019-02-22T05:15:26.216Z,7.25
2019-02-22T05:17:54.630Z,7.22
2019-02-22T05:20:23.029Z,7.16
2019-02-22T05:23:03.005Z,7.14
2019-02-22T05:25:21.555Z,7.10
2019-02-22T05:27:49.969Z,7.05
2019-02-22T05:30:18.368Z,7.01
2019-02-22T05:32:46.788Z,6.97
2019-02-22T05:35:15.192Z,6.92
2019-02-22T05:37:43.602Z,6.88
2019-02-22T05:40:12.004Z,6.84
2019-02-22T05:42:40.418Z,6.78
2019-02-22T05:45:08.900Z,6.74
2019-02-22T05:47:37.682Z,6.74
2019-02-22T05:50:06.453Z,6.73
2019-02-22T05:52:34.937Z,6.71
2019-02-22T05:55:03.343Z,6.67
2019-02-22T05:57:31.751Z,6.64
2019-02-22T06:00:00.343Z,6.63
2019-02-22T06:02:29.073Z,6.61
2019-02-22T06:04:57.471Z,6.57
2019-02-22T06:07:25.881Z,6.55
2019-02-22T06:09:54.308Z,6.53
2019-02-22T06:12:33.912Z,6.51
2019-02-22T06:14:53.223Z,6.49
2019-02-22T06:17:21.622Z,6.45
2019-02-22T06:19:50.302Z,6.41
2019-02-22T06:22:29.021Z,6.36
2019-02-22T06:24:49.398Z,6.29
2019-02-22T06:27:17.811Z,6.23
2019-02-22T06:29:52.213Z,6.18
2019-02-22T06:32:20.640Z,6.16
2019-02-22T06:34:49.054Z,6.15
2019-02-22T06:37:17.475Z,6.15
2019-02-22T06:39:45.900Z,6.14
2019-02-22T06:42:14.347Z,6.12
2019-02-22T06:44:42.711Z,6.12
2019-02-22T06:47:11.130Z,6.09
2019-02-22T06:49:39.838Z,6.10
2019-02-22T06:52:08.318Z,6.09
2019-02-22T06:54:36.727Z,6.07
2019-02-22T06:57:05.144Z,6.08
2019-02-22T06:59:33.549Z,6.09
2019-02-22T07:02:01.951Z,6.08
2019-02-22T07:04:30.727Z,6.02
2019-02-22T07:06:59.177Z,5.95
2019-02-22T07:09:27.582Z,5.92
2019-02-22T07:12:00.575Z,5.88
2019-02-22T07:14:28.998Z,5.84
2019-02-22T07:16:57.409Z,5.83
2019-02-22T07:55:09.632Z,5.84
2019-02-22T07:57:40.078Z,5.84
2019-02-22T08:00:14.004Z,5.72
2019-02-22T08:02:42.403Z,5.77
2019-02-22T08:09:57.039Z,5.83
2019-02-22T08:12:25.714Z,5.83
2019-02-22T08:15:31.390Z,5.83
2019-02-22T08:23:37.770Z,5.85
2019-02-22T08:26:06.485Z,5.85
2019-02-22T08:42:13.546Z,5.90
2019-02-22T08:44:42.231Z,5.90
2019-02-22T08:47:10.904Z,5.45
2019-02-22T08:49:39.594Z,5.49
2019-02-22T08:52:08.024Z,5.48
2019-02-22T08:54:46.577Z,5.47
2019-02-22T08:57:06.722Z,5.49
2019-02-22T08:59:35.125Z,5.53
2019-02-22T09:02:03.547Z,5.55
2019-02-22T09:04:31.950Z,5.55
2019-02-22T09:07:00.360Z,5.56
2019-02-22T09:09:28.769Z,5.53
2019-02-22T09:11:57.845Z,5.54
2019-02-22T09:14:26.401Z,5.51
2019-02-22T09:16:54.806Z,5.47
2019-02-22T09:19:23.205Z,5.43
2019-02-22T09:21:51.617Z,5.38
2019-02-22T09:24:20.016Z,5.35
2019-02-22T09:26:48.437Z,5.29
2019-02-22T09:29:16.825Z,5.20
2019-02-22T09:31:45.529Z,5.11
2019-02-22T09:34:13.942Z,5.02
2019-02-22T09:36:42.340Z,5.01
2019-02-22T09:39:10.763Z,5.00
2019-02-22T09:41:39.165Z,4.99
2019-02-22T09:44:07.946Z,4.94
2019-02-22T09:46:36.349Z,4.89
2019-02-22T09:49:04.765Z,4.89
2019-02-22T09:51:33.163Z,4.94
2019-02-22T09:54:01.566Z,5.01
2019-02-22T09:56:30.225Z,5.11
2019-02-22T09:58:58.635Z,5.13
2019-02-22T10:01:27.391Z,5.10
2019-02-22T10:03:55.805Z,5.15
2019-02-22T10:06:24.241Z,5.31
2019-02-22T10:08:52.614Z,5.44
2019-02-22T10:11:21.312Z,5.60
2019-02-22T10:13:50.106Z,5.71
2019-02-22T10:16:18.516Z,5.73
2019-02-22T10:18:47.059Z,5.71
2019-02-22T10:21:15.511Z,5.62
2019-02-22T10:23:43.900Z,5.51
2019-02-22T10:26:12.308Z,5.44
2019-02-22T10:28:40.726Z,5.36
2019-02-22T10:31:09.141Z,5.33
2019-02-22T10:33:37.552Z,5.31
2019-02-22T10:36:05.956Z,5.33
2019-02-22T10:38:35.957Z,5.40
2019-02-22T10:41:04.541Z,5.46
2019-02-22T10:43:32.945Z,5.50
2019-02-22T10:46:01.361Z,5.55
2019-02-22T10:48:29.755Z,5.63
2019-02-22T10:50:59.418Z,5.70
2019-02-22T10:53:28.377Z,5.79
2019-02-22T10:55:57.158Z,5.86
2019-02-22T10:58:25.560Z,5.94
2019-02-22T11:00:54.319Z,6.06
2019-02-22T11:03:23.007Z,6.15
2019-02-22T11:05:51.489Z,6.24
2019-02-22T11:08:19.895Z,6.30
2019-02-22T11:10:48.657Z,6.41
2019-02-22T11:13:17.062Z,6.46
2019-02-22T11:15:45.479Z,6.43
2019-02-22T11:18:14.196Z,6.40
2019-02-22T11:20:42.603Z,6.33
2019-02-22T11:23:11.032Z,6.28
2019-02-22T11:25:39.445Z,6.35
2019-02-22T11:28:08.234Z,6.45
2019-02-22T11:30:36.636Z,6.53
2019-02-22T11:33:05.116Z,6.62
2019-02-22T11:35:33.518Z,6.76
2019-02-22T11:38:02.263Z,6.88
2019-02-22T11:40:30.664Z,6.88
2019-02-22T11:42:59.097Z,6.81
2019-02-22T11:45:27.506Z,6.77
2019-02-22T11:47:55.924Z,6.81
2019-02-22T11:50:24.326Z,6.92
2019-02-22T11:52:52.748Z,7.05
2019-02-22T11:55:21.547Z,7.16
2019-02-22T11:57:49.965Z,7.22
2019-02-22T12:00:23.295Z,7.15
2019-02-22T12:02:51.745Z,7.07
2019-02-22T12:05:20.109Z,7.04
2019-02-22T12:07:48.843Z,7.05
2019-02-22T12:10:17.545Z,7.03
2019-02-22T12:12:45.998Z,7.08
2019-02-22T12:15:14.833Z,7.18
2019-02-22T12:17:43.591Z,7.27
2019-02-22T12:20:12.599Z,7.31
2019-02-22T12:22:40.999Z,7.32
2019-02-22T12:25:11.545Z,7.33
2019-02-22T12:27:39.941Z,7.39
2019-02-22T12:30:19.065Z,7.46
2019-02-22T12:32:47.467Z,7.49
2019-02-22T12:35:15.883Z,7.54
2019-02-22T12:37:44.456Z,7.61
2019-02-22T12:40:13.240Z,7.71
2019-02-22T12:42:41.647Z,7.73
2019-02-22T12:45:11.611Z,7.76
2019-02-22T12:47:40.314Z,7.87
2019-02-22T12:50:12.433Z,7.97
2019-02-22T12:52:40.114Z,8.00
2019-02-22T12:55:11.603Z,8.00
2019-02-22T12:57:40.293Z,8.09
2019-02-22T13:00:19.317Z,8.17
2019-02-22T13:02:48.088Z,8.28
2019-02-22T13:05:22.090Z,8.35
2019-02-22T13:07:52.574Z,8.37
2019-02-22T13:10:21.019Z,8.36
2019-02-22T13:12:49.440Z,8.31
2019-02-22T13:15:18.197Z,8.29
2019-02-22T13:17:46.874Z,8.34
2019-02-22T13:20:15.342Z,8.41
2019-02-22T13:22:44.040Z,8.48
2019-02-22T13:25:12.465Z,8.64
2019-02-22T13:27:40.864Z,9.08
2019-02-22T13:30:14.671Z,9.59
2019-02-22T13:32:43.978Z,9.93
2019-02-22T13:35:12.377Z,10.29
2019-02-22T13:37:41.061Z,10.59
2019-02-22T13:40:15.548Z,10.73
2019-02-22T13:42:44.317Z,10.79
2019-02-22T13:45:25.538Z,10.75
2019-02-22T13:47:44.137Z,10.60
2019-02-22T13:50:19.850Z,10.54
2019-02-22T13:52:48.261Z,10.45
2019-02-22T13:55:16.688Z,10.32
2019-02-22T13:57:45.087Z,10.30
2019-02-22T14:00:18.868Z,10.26
2019-02-22T14:02:47.246Z,10.27
2019-02-22T14:05:15.739Z,10.31
2019-02-22T14:07:57.027Z,10.15
2019-02-22T14:10:26.087Z,9.94
2019-02-22T14:12:54.489Z,9.90
2019-02-22T14:15:22.920Z,10.02
2019-02-22T14:17:51.332Z,10.02
2019-02-22T14:20:20.111Z,9.93
2019-02-22T14:22:50.255Z,9.87
2019-02-22T14:25:18.730Z,9.94
2019-02-22T14:27:47.130Z,10.09
2019-02-22T14:30:18.220Z,10.29
2019-02-22T14:32:47.221Z,10.58
2019-02-22T14:35:15.710Z,10.81
2019-02-22T14:37:44.233Z,10.87
2019-02-22T14:40:13.602Z,10.72
2019-02-22T14:42:42.005Z,10.71
2019-02-22T14:45:14.739Z,10.86
2019-02-22T14:47:43.146Z,11.09
2019-02-22T14:50:16.943Z,11.04
2019-02-22T14:52:50.222Z,10.86
2019-02-22T14:55:16.445Z,10.66
2019-02-22T14:57:45.501Z,10.45
2019-02-22T15:00:16.717Z,10.18
2019-02-22T15:02:45.127Z,10.04
2019-02-22T15:05:16.626Z,10.13
2019-02-22T15:07:45.020Z,10.21
2019-02-22T15:10:13.566Z,10.20
2019-02-22T15:12:42.064Z,10.33
2019-02-22T15:15:18.873Z,10.53
2019-02-22T15:17:48.930Z,10.58
2019-02-22T15:20:17.658Z,10.51
2019-02-22T15:22:46.080Z,10.47
2019-02-22T15:25:16.232Z,10.51
2019-02-22T15:27:44.933Z,10.64
2019-02-22T15:30:15.173Z,10.65
2019-02-22T15:32:43.845Z,10.66
2019-02-22T15:35:14.474Z,10.75
2019-02-22T15:37:43.586Z,10.97
2019-02-22T15:40:13.591Z,11.21
2019-02-22T15:42:42.389Z,11.43
2019-02-22T15:45:18.478Z,11.64
2019-02-22T15:47:48.852Z,11.72
2019-02-22T15:50:18.343Z,11.66
2019-02-22T15:52:48.225Z,11.45
2019-02-22T15:55:16.665Z,11.17
2019-02-22T15:57:45.438Z,10.85
2019-02-22T16:00:25.843Z,10.45
2019-02-22T16:02:54.515Z,10.08
2019-02-22T16:05:24.631Z,9.77
2019-02-22T16:07:53.298Z,9.50
2019-02-22T16:10:21.707Z,9.21
2019-02-22T16:12:50.183Z,8.90
2019-02-22T16:15:18.954Z,8.63
2019-02-22T16:17:47.939Z,8.34
2019-02-22T16:20:17.861Z,8.09
2019-02-22T16:22:46.902Z,7.87
2019-02-22T16:25:19.474Z,7.68
2019-02-22T16:27:45.856Z,7.51
2019-02-22T16:30:17.740Z,7.35
2019-02-22T16:32:46.145Z,7.20
2019-02-22T16:35:15.181Z,7.06
2019-02-22T16:37:44.168Z,6.92
2019-02-22T16:40:13.218Z,6.81
2019-02-22T16:42:41.890Z,6.70
2019-02-22T16:45:12.152Z,6.62
2019-02-22T16:47:42.421Z,6.51
2019-02-22T16:50:12.341Z,6.43
2019-02-22T16:52:40.770Z,6.34
2019-02-22T16:55:12.116Z,6.26
2019-02-22T16:57:42.051Z,6.17
2019-02-22T17:00:12.822Z,6.10
2019-02-22T17:02:41.279Z,6.02
2019-02-22T17:05:12.021Z,5.94
2019-02-22T17:07:40.512Z,5.89
2019-02-22T17:10:11.324Z,5.84
2019-02-22T17:12:39.871Z,5.80
2019-02-22T17:15:11.295Z,5.75
2019-02-22T17:17:44.601Z,5.67
2019-02-22T17:20:15.338Z,5.63
2019-02-22T17:22:43.920Z,5.58
2019-02-22T17:25:17.168Z,5.52
2019-02-22T17:27:45.615Z,5.48
2019-02-22T17:30:16.495Z,5.43
2019-02-22T17:32:44.861Z,5.40
2019-02-22T17:35:13.339Z,5.39
2019-02-22T17:37:41.750Z,5.39
2019-02-22T17:40:13.412Z,5.38
2019-02-22T17:42:42.065Z,5.36
2019-02-22T17:45:10.758Z,5.35
2019-02-22T17:47:39.165Z,5.32
2019-02-22T17:50:09.616Z,5.29
2019-02-22T17:52:38.013Z,5.25
2019-02-22T17:55:08.366Z,5.22
2019-02-22T17:57:36.765Z,5.19
2019-02-22T18:00:15.632Z,5.17
2019-02-22T18:02:44.168Z,5.14
2019-02-22T18:05:12.620Z,5.12
2019-02-22T18:07:41.022Z,5.10
2019-02-22T18:10:10.774Z,5.10
2019-02-22T18:12:39.171Z,5.07
2019-02-22T18:15:17.220Z,5.06
2019-02-22T18:17:44.800Z,5.03
2019-02-22T18:20:13.250Z,4.99
2019-02-22T18:22:41.943Z,4.96
2019-02-22T18:25:10.477Z,4.94
2019-02-22T18:27:40.321Z,4.93
2019-02-22T18:30:17.825Z,4.91
2019-02-22T18:32:46.265Z,4.89
2019-02-22T18:35:15.011Z,4.87
2019-02-22T18:37:43.684Z,4.84
2019-02-22T18:40:15.235Z,4.83
2019-02-22T18:42:43.659Z,4.81
2019-02-22T18:45:12.077Z,4.80
2019-02-22T18:47:40.480Z,4.77
2019-02-22T18:50:11.965Z,4.72
2019-02-22T18:52:40.366Z,4.68
2019-02-22T18:55:10.129Z,4.64
2019-02-22T18:57:39.105Z,4.60
2019-02-22T19:00:20.315Z,4.58
2019-02-22T19:02:49.279Z,4.54
2019-02-22T19:05:17.748Z,4.50
2019-02-22T19:07:46.159Z,4.49
2019-02-22T19:10:15.593Z,4.51
2019-02-22T19:12:44.002Z,4.51
2019-02-22T19:15:18.215Z,4.49
2019-02-22T19:17:46.640Z,4.45
2019-02-22T19:20:21.580Z,4.44
2019-02-22T19:22:49.990Z,4.43
2019-02-22T19:25:18.422Z,4.40
2019-02-22T19:27:46.906Z,4.38
2019-02-22T19:30:20.100Z,4.37
2019-02-22T19:32:48.511Z,4.36
2019-02-22T19:35:16.904Z,4.36
2019-02-22T19:37:45.326Z,4.37
2019-02-22T19:40:16.361Z,4.36
2019-02-22T19:42:44.788Z,4.34
2019-02-22T19:45:13.230Z,4.32
2019-02-22T19:47:42.530Z,4.31
2019-02-22T19:50:14.529Z,4.27
2019-02-22T19:52:42.943Z,4.24
2019-02-22T19:55:19.143Z,4.21
2019-02-22T19:57:47.537Z,4.17
2019-02-22T20:00:19.571Z,4.17
2019-02-22T20:02:47.530Z,4.15
2019-02-22T20:05:16.155Z,4.11
2019-02-22T20:07:44.560Z,4.07
2019-02-22T20:10:18.103Z,4.03
2019-02-22T20:12:45.370Z,4.01
2019-02-22T20:15:18.081Z,3.98
2019-02-22T20:17:53.910Z,3.97
2019-02-22T20:20:18.021Z,3.93
2019-02-22T20:22:46.610Z,3.92
2019-02-22T20:25:15.097Z,3.90
2019-02-22T20:27:43.515Z,3.87
2019-02-22T20:30:14.459Z,3.86
2019-02-22T20:32:42.849Z,3.84
2019-02-22T20:35:13.813Z,3.81
2019-02-22T20:37:51.763Z,3.78
2019-02-22T20:40:12.345Z,3.77
2019-02-22T20:42:40.814Z,3.75
2019-02-22T20:45:11.385Z,3.74
2019-02-22T20:47:39.784Z,3.73
2019-02-22T20:50:11.297Z,3.72
2019-02-22T20:52:39.708Z,3.72
2019-02-22T20:55:11.875Z,3.71
2019-02-22T20:57:40.417Z,3.69
2019-02-22T21:00:15.292Z,3.68
2019-02-22T21:02:43.694Z,3.67
2019-02-22T21:05:12.158Z,3.65
2019-02-22T21:07:40.615Z,3.64
2019-02-22T21:10:11.719Z,3.61
2019-02-22T21:12:40.452Z,3.60
2019-02-22T21:15:11.324Z,3.58
2019-02-22T21:17:39.749Z,3.58
2019-02-22T21:20:10.917Z,3.56
2019-02-22T21:22:39.328Z,3.55
2019-02-22T21:25:09.877Z,3.53
2019-02-22T21:27:38.308Z,3.52
2019-02-22T21:30:09.813Z,3.49
2019-02-22T21:32:38.223Z,3.46
2019-02-22T21:35:08.164Z,3.44
2019-02-22T21:37:36.650Z,3.44
2019-02-22T21:40:07.400Z,3.43
2019-02-22T21:42:36.118Z,3.41
2019-02-22T21:45:06.658Z,3.39
2019-02-22T21:47:35.108Z,3.38
2019-02-22T21:50:04.459Z,3.37
2019-02-22T21:52:32.880Z,3.36
2019-02-22T21:55:01.280Z,3.34
2019-02-22T21:57:29.706Z,3.32
2019-02-22T21:59:58.118Z,3.31
2019-02-22T22:02:26.876Z,3.30
2019-02-22T22:04:55.329Z,3.28
2019-02-22T22:07:23.718Z,3.26
2019-02-22T22:09:52.198Z,3.24
2019-02-22T22:12:20.597Z,3.22
2019-02-22T22:14:49.014Z,3.19
2019-02-22T22:17:17.415Z,3.17
2019-02-22T22:19:45.887Z,3.14
2019-02-22T22:22:14.265Z,3.16
2019-02-22T22:24:43.047Z,3.19
2019-02-22T22:27:11.445Z,3.20
2019-02-22T22:29:39.853Z,3.20
2019-02-22T22:32:08.258Z,3.16
2019-02-22T22:34:36.665Z,3.11
2019-02-22T22:37:05.067Z,3.11
2019-02-22T22:39:33.482Z,3.10
2019-02-22T22:42:01.885Z,3.09
2019-02-22T22:44:30.317Z,3.07
2019-02-22T22:46:59.086Z,3.03
2019-02-22T22:49:27.518Z,3.00
2019-02-22T22:51:55.913Z,2.99
2019-02-22T22:54:24.320Z,3.03
2019-02-22T22:56:53.145Z,3.04
2019-02-22T22:59:21.544Z,3.05
2019-02-22T23:01:50.892Z,3.04
2019-02-22T23:04:19.302Z,3.04
2019-02-22T23:06:48.057Z,3.02
2019-02-22T23:09:20.740Z,2.98
2019-02-22T23:11:49.151Z,2.94
2019-02-22T23:14:17.634Z,2.90
2019-02-22T23:16:46.367Z,2.85
2019-02-22T23:19:14.847Z,2.84
2019-02-22T23:21:43.550Z,2.84
2019-02-22T23:24:11.950Z,2.82
2019-02-22T23:26:40.717Z,2.80
2019-02-22T23:29:09.402Z,2.78
2019-02-22T23:31:38.081Z,2.78
2019-02-22T23:34:06.469Z,2.78
2019-02-22T23:36:34.883Z,2.79
2019-02-22T23:39:03.984Z,2.82
2019-02-22T23:41:32.719Z,2.86
2019-02-22T23:44:01.120Z,2.88
2019-02-22T23:46:29.895Z,2.88
2019-02-22T23:48:58.295Z,2.86
2019-02-22T23:51:26.692Z,2.84
2019-02-22T23:53:55.099Z,2.82
2019-02-22T23:56:23.854Z,2.82
2019-02-22T23:58:52.271Z,2.84
